createdAt,value
2015-11-05T00:00:16.329Z,95.2
2015-11-05T00:01:16.285Z,95.2
2015-11-05T00:02:16.225Z,95.2
2015-11-05T00:03:16.166Z,95.5
2015-11-05T00:04:16.105Z,95.2
2015-11-05T00:05:16.061Z,95.4
2015-11-05T00:06:16.017Z,95.4
2015-11-05T00:07:15.957Z,95.4
2015-11-05T00:08:15.163Z,95.8
2015-11-05T00:09:15.854Z,95.5
2015-11-05T00:10:15.793Z,96.2
2015-11-05T00:11:15.734Z,96.1
2015-11-05T00:12:15.690Z,96.5
2015-11-05T00:13:15.630Z,97.2
2015-11-05T00:14:15.570Z,96.7
2015-11-05T00:15:15.526Z,96.4
2015-11-05T00:16:15.482Z,96.6
2015-11-05T00:17:15.423Z,96.1
2015-11-05T00:18:15.378Z,96.3
2015-11-05T00:19:15.318Z,96
2015-11-05T00:20:15.259Z,95.8
2015-11-05T00:21:15.216Z,96.2
2015-11-05T00:22:15.156Z,96.2
2015-11-05T00:23:15.096Z,96.1
2015-11-05T00:24:15.051Z,96.7
2015-11-05T00:25:15.008Z,96.6
2015-11-05T00:26:14.948Z,96.3
2015-11-05T00:27:14.888Z,96.2
2015-11-05T00:28:14.094Z,96.1
2015-11-05T00:29:14.785Z,95.9
2015-11-05T00:30:14.953Z,95.4
2015-11-05T00:31:14.674Z,95.4
2015-11-05T00:32:14.631Z,95.2
2015-11-05T00:33:14.571Z,95.4
2015-11-05T00:34:14.512Z,95.2
2015-11-05T00:35:14.467Z,95.3
2015-11-05T00:36:14.406Z,95.7
2015-11-05T00:37:14.347Z,95.9
2015-11-05T00:38:14.275Z,96.1
2015-11-05T00:39:14.217Z,96.2
2015-11-05T00:40:14.144Z,96.1
2015-11-05T00:41:14.089Z,96.4
2015-11-05T00:42:14.024Z,96.1
2015-11-05T00:43:13.960Z,95.9
2015-11-05T00:44:13.913Z,95.6
2015-11-05T00:45:13.848Z,95.6
2015-11-05T00:46:13.799Z,95.3
2015-11-05T00:47:13.737Z,95.1
2015-11-05T00:48:13.909Z,95.3
2015-11-05T00:49:13.628Z,95.4
2015-11-05T00:50:13.568Z,95.7
2015-11-05T00:51:13.522Z,95.5
2015-11-05T00:52:13.445Z,96
2015-11-05T00:53:13.650Z,96
2015-11-05T00:54:13.355Z,96.7
2015-11-05T00:55:13.295Z,96.4
2015-11-05T00:56:13.234Z,96.7
2015-11-05T00:57:13.174Z,96.4
2015-11-05T00:58:13.130Z,96.6
2015-11-05T00:59:13.070Z,97
2015-11-05T01:00:12.291Z,97
2015-11-05T01:01:12.983Z,96.9
2015-11-05T01:02:12.906Z,96.4
2015-11-05T01:03:12.863Z,96.7
2015-11-05T01:04:12.819Z,97
2015-11-05T01:05:12.758Z,96.6
2015-11-05T01:06:12.713Z,96.7
2015-11-05T01:07:12.639Z,96.7
2015-11-05T01:08:12.595Z,96.8
2015-11-05T01:09:12.535Z,96.6
2015-11-05T01:10:12.490Z,96.6
2015-11-05T01:11:12.431Z,96.6
2015-11-05T01:12:12.388Z,96.2
2015-11-05T01:13:12.171Z,96.3
2015-11-05T01:14:12.268Z,96.6
2015-11-05T01:15:12.224Z,96.7
2015-11-05T01:16:12.163Z,96.8
2015-11-05T01:17:12.104Z,96.7
2015-11-05T01:18:12.060Z,96.5
2015-11-05T01:19:12.015Z,96.2
2015-11-05T01:20:11.956Z,96.2
2015-11-05T01:21:11.896Z,96.6
2015-11-05T01:22:11.852Z,96.2
2015-11-05T01:23:11.777Z,96.8
2015-11-05T01:24:11.732Z,96.5
2015-11-05T01:25:11.688Z,96.7
2015-11-05T01:26:11.629Z,96.4
2015-11-05T01:27:11.804Z,96.5
2015-11-05T01:28:11.524Z,97.1
2015-11-05T01:29:11.698Z,97.2
2015-11-05T01:30:11.421Z,96.6
2015-11-05T01:31:11.376Z,96.9
2015-11-05T01:32:11.317Z,96.9
2015-11-05T01:33:11.257Z,96.8
2015-11-05T01:34:11.198Z,96.9
2015-11-05T01:35:11.154Z,96.7
2015-11-05T01:36:11.109Z,96.6
2015-11-05T01:37:11.049Z,96.7
2015-11-05T01:38:10.990Z,96.8
2015-11-05T01:39:10.946Z,96.7
2015-11-05T01:40:10.885Z,96.7
2015-11-05T01:41:11.060Z,96.7
2015-11-05T01:42:10.782Z,97.1
2015-11-05T01:43:10.720Z,96.7
2015-11-05T01:44:10.675Z,97.2
2015-11-05T01:45:10.615Z,97.1
2015-11-05T01:46:10.571Z,97.2
2015-11-05T01:47:10.526Z,97.5
2015-11-05T01:48:10.467Z,97.4
2015-11-05T01:49:10.423Z,97.5
2015-11-05T01:50:10.363Z,97.2
2015-11-05T01:51:10.319Z,98
2015-11-05T01:52:10.244Z,97.7
2015-11-05T01:53:10.200Z,97.5
2015-11-05T01:54:10.139Z,97.1
2015-11-05T01:55:10.081Z,97.6
2015-11-05T01:56:10.036Z,97.8
2015-11-05T01:57:09.976Z,97.5
2015-11-05T01:58:09.932Z,97.5
2015-11-05T01:59:09.872Z,97.7
2015-11-05T02:00:09.812Z,97.3
2015-11-05T02:01:09.769Z,97.3
2015-11-05T02:02:09.708Z,97.3
2015-11-05T02:03:09.664Z,97.2
2015-11-05T02:04:09.636Z,97.5
2015-11-05T02:05:09.561Z,96.8
2015-11-05T02:06:09.501Z,96.8
2015-11-05T02:07:09.441Z,97
2015-11-05T02:08:09.398Z,96.5
2015-11-05T02:09:09.337Z,96.5
2015-11-05T02:10:09.527Z,96.5
2015-11-05T02:11:09.249Z,96.8
2015-11-05T02:12:09.017Z,97.5
2015-11-05T02:13:09.130Z,97.8
2015-11-05T02:14:09.070Z,97.6
2015-11-05T02:15:09.244Z,97.6
2015-11-05T02:16:08.966Z,97
2015-11-05T02:17:08.906Z,97.7
2015-11-05T02:18:08.877Z,97.7
2015-11-05T02:19:08.802Z,97.8
2015-11-05T02:20:08.758Z,97.7
2015-11-05T02:21:08.933Z,97.1
2015-11-05T02:22:08.638Z,97.2
2015-11-05T02:23:08.610Z,97.2
2015-11-05T02:24:08.535Z,96.9
2015-11-05T02:25:08.490Z,96.9
2015-11-05T02:26:08.666Z,97.3
2015-11-05T02:27:08.371Z,97.1
2015-11-05T02:28:08.327Z,96.9
2015-11-05T02:29:08.267Z,96.9
2015-11-05T02:30:08.223Z,96.9
2015-11-05T02:31:08.163Z,97.1
2015-11-05T02:32:08.119Z,97.1
2015-11-05T02:33:08.057Z,97.1
2015-11-05T02:34:07.997Z,97.2
2015-11-05T02:35:07.937Z,97.1
2015-11-05T02:36:07.893Z,97.3
2015-11-05T02:37:07.849Z,97.8
2015-11-05T02:38:07.788Z,97.3
2015-11-05T02:39:07.729Z,97.6
2015-11-05T02:40:07.684Z,97.3
2015-11-05T02:41:07.640Z,97.3
2015-11-05T02:42:07.581Z,96.9
2015-11-05T02:43:07.521Z,97
2015-11-05T02:44:07.476Z,96.8
2015-11-05T02:45:07.417Z,96.4
2015-11-05T02:46:07.357Z,96.5
2015-11-05T02:47:07.141Z,96.5
2015-11-05T02:48:07.487Z,96.5
2015-11-05T02:49:07.226Z,96.6
2015-11-05T02:50:07.150Z,96.6
2015-11-05T02:51:07.106Z,96.5
2015-11-05T02:52:07.046Z,96.7
2015-11-05T02:53:06.987Z,97.3
2015-11-05T02:54:06.942Z,97.7
2015-11-05T02:55:06.898Z,97.6
2015-11-05T02:56:06.838Z,97.8
2015-11-05T02:57:06.778Z,97.5
2015-11-05T02:58:06.751Z,97.2
2015-11-05T02:59:06.675Z,97
2015-11-05T03:00:06.615Z,97
2015-11-05T03:01:06.570Z,97.4
2015-11-05T03:02:06.511Z,97.3
2015-11-05T03:03:06.467Z,97.2
2015-11-05T03:04:06.407Z,97
2015-11-05T03:05:06.348Z,96.7
2015-11-05T03:06:06.303Z,96.7
2015-11-05T03:07:06.243Z,96.5
2015-11-05T03:08:06.200Z,96.6
2015-11-05T03:09:06.373Z,97.1
2015-11-05T03:10:06.080Z,97.3
2015-11-05T03:11:06.036Z,97.4
2015-11-05T03:12:05.976Z,97.3
2015-11-05T03:13:05.931Z,97.4
2015-11-05T03:14:05.887Z,97.1
2015-11-05T03:15:05.844Z,97.4
2015-11-05T03:16:05.768Z,97
2015-11-05T03:17:05.709Z,96.8
2015-11-05T03:18:05.664Z,97.3
2015-11-05T03:19:05.605Z,97.3
2015-11-05T03:20:05.561Z,97.8
2015-11-05T03:21:05.516Z,97.3
2015-11-05T03:22:05.456Z,97.1
2015-11-05T03:23:05.397Z,97.9
2015-11-05T03:24:05.353Z,98
2015-11-05T03:25:05.527Z,97.6
2015-11-05T03:26:05.246Z,98
2015-11-05T03:27:05.186Z,98.7
2015-11-05T03:28:05.142Z,98.1
2015-11-05T03:29:05.082Z,97.8
2015-11-05T03:30:05.038Z,97.5
2015-11-05T03:31:04.978Z,97.3
2015-11-05T03:32:04.918Z,97.8
2015-11-05T03:33:04.891Z,98.4
2015-11-05T03:34:04.813Z,98.1
2015-11-05T03:35:04.770Z,98.5
2015-11-05T03:36:04.711Z,98.5
2015-11-05T03:37:04.651Z,98.3
2015-11-05T03:38:04.622Z,98.1
2015-11-05T03:39:04.547Z,97.6
2015-11-05T03:40:04.502Z,98.1
2015-11-05T03:41:04.677Z,98.3
2015-11-05T03:42:04.398Z,98.4
2015-11-05T03:43:04.354Z,98.4
2015-11-05T03:44:04.279Z,98.7
2015-11-05T03:45:04.235Z,98.5
2015-11-05T03:46:04.176Z,98.4
2015-11-05T03:47:04.131Z,98.3
2015-11-05T03:48:04.072Z,98.5
2015-11-05T03:49:04.027Z,98.5
2015-11-05T03:50:03.983Z,98.7
2015-11-05T03:51:03.908Z,99.3
2015-11-05T03:52:03.864Z,99.5
2015-11-05T03:53:03.804Z,99.7
2015-11-05T03:54:03.760Z,99.9
2015-11-05T03:55:03.715Z,99.9
2015-11-05T03:56:02.921Z,99.3
2015-11-05T03:57:03.612Z,98.9
2015-11-05T03:58:03.412Z,99.1
2015-11-05T03:59:03.726Z,99.2
2015-11-05T04:00:02.714Z,99.4
2015-11-05T04:01:03.404Z,99.6
2015-11-05T04:02:03.578Z,99.2
2015-11-05T04:03:03.285Z,98.9
2015-11-05T04:04:03.240Z,99.1
2015-11-05T04:05:03.181Z,98.9
2015-11-05T04:06:03.137Z,98.5
2015-11-05T04:07:03.076Z,98.8
2015-11-05T04:08:03.017Z,99.1
2015-11-05T04:09:02.973Z,99.1
2015-11-05T04:10:02.912Z,99.5
2015-11-05T04:11:02.884Z,99.8
2015-11-05T04:12:02.075Z,99.9
2015-11-05T04:13:02.609Z,99.4
2015-11-05T04:14:02.721Z,98.8
2015-11-05T04:15:02.661Z,98.7
2015-11-05T04:16:02.601Z,99.1
2015-11-05T04:17:02.557Z,99.7
2015-11-05T04:18:02.497Z,99.9
2015-11-05T04:19:02.469Z,99.3
2015-11-05T04:20:02.391Z,99.6
2015-11-05T04:21:02.330Z,99.5
2015-11-05T04:22:02.286Z,99
2015-11-05T04:23:02.242Z,99.2
2015-11-05T04:24:02.323Z,99.2
2015-11-05T04:25:02.123Z,99.2
2015-11-05T04:26:02.078Z,99.9
2015-11-05T04:27:02.035Z,99.9
2015-11-05T04:28:01.975Z,99.7
2015-11-05T04:29:01.915Z,99.5
2015-11-05T04:30:01.871Z,99.4
2015-11-05T04:31:01.827Z,99.3
2015-11-05T04:32:01.752Z,99.8
2015-11-05T04:33:01.722Z,99.9
2015-11-05T04:34:01.647Z,99.9
2015-11-05T04:35:01.603Z,99.9
2015-11-05T04:36:01.559Z,99.9
2015-11-05T04:37:01.499Z,99.9
2015-11-05T04:38:01.455Z,99.9
2015-11-05T04:39:01.630Z,99.6
2015-11-05T04:40:01.366Z,99.3
2015-11-05T04:41:01.292Z,99.4
2015-11-05T04:42:01.233Z,99.5
2015-11-05T04:43:01.188Z,99.1
2015-11-05T04:44:01.472Z,99.2
2015-11-05T04:45:01.084Z,99.8
2015-11-05T04:46:01.024Z,99.9
2015-11-05T04:47:00.980Z,99.9
2015-11-05T04:48:00.921Z,99.4
2015-11-05T04:49:00.861Z,99.6
2015-11-05T04:50:00.816Z,99.4
2015-11-05T04:51:00.866Z,99
2015-11-05T04:52:00.713Z,99.1
2015-11-05T04:53:00.653Z,99
2015-11-05T04:54:00.702Z,99.4
2015-11-05T04:55:00.565Z,99.5
2015-11-05T04:56:00.505Z,99.9
2015-11-05T04:57:00.633Z,99.9
2015-11-05T04:58:00.401Z,99.9
2015-11-05T04:59:00.576Z,99.9
2015-11-05T05:00:00.296Z,99.8
2015-11-05T05:01:00.268Z,99.9
2015-11-05T05:02:00.177Z,99.9
2015-11-05T05:03:00.134Z,99.9
2015-11-05T05:04:00.073Z,99.9
2015-11-05T05:05:00.029Z,99.9
2015-11-05T05:05:59.970Z,99.9
2015-11-05T05:06:59.926Z,99.9
2015-11-05T05:07:59.866Z,99.9
2015-11-05T05:09:00.040Z,99.9
2015-11-05T05:09:59.762Z,99.9
2015-11-05T05:10:59.717Z,99.9
2015-11-05T05:11:59.658Z,99.9
2015-11-05T05:12:59.595Z,99.9
2015-11-05T05:13:59.551Z,99.9
2015-11-05T05:14:59.506Z,99.9
2015-11-05T05:15:59.463Z,99.9
2015-11-05T05:16:59.403Z,99.9
2015-11-05T05:17:59.343Z,99.9
2015-11-05T05:18:59.283Z,99.9
2015-11-05T05:19:59.256Z,99.9
2015-11-05T05:20:59.180Z,99.9
2015-11-05T05:21:59.136Z,99.9
2015-11-05T05:22:59.076Z,99.9
2015-11-05T05:23:59.031Z,99.9
2015-11-05T05:24:58.972Z,99.9
2015-11-05T05:25:58.927Z,99.8
2015-11-05T05:26:58.867Z,99.9
2015-11-05T05:27:58.808Z,99.9
2015-11-05T05:28:58.780Z,99.9
2015-11-05T05:29:58.705Z,99.9
2015-11-05T05:30:58.660Z,99.9
2015-11-05T05:31:58.836Z,99.9
2015-11-05T05:32:58.556Z,99.9
2015-11-05T05:33:58.512Z,99.9
2015-11-05T05:34:58.452Z,99.9
2015-11-05T05:35:58.392Z,99.9
2015-11-05T05:36:58.349Z,99.9
2015-11-05T05:37:58.288Z,99.9
2015-11-05T05:38:58.244Z,99.9
2015-11-05T05:39:58.185Z,99.7
2015-11-05T05:40:58.141Z,99.9
2015-11-05T05:41:58.081Z,99.9
2015-11-05T05:42:58.036Z,99.9
2015-11-05T05:43:57.961Z,99.4
2015-11-05T05:44:57.916Z,99.9
2015-11-05T05:45:57.874Z,99.9
2015-11-05T05:46:57.658Z,99.9
2015-11-05T05:47:57.769Z,99.7
2015-11-05T05:48:57.709Z,99.6
2015-11-05T05:49:57.665Z,99.3
2015-11-05T05:50:57.605Z,99.3
2015-11-05T05:51:57.546Z,99
2015-11-05T05:52:57.501Z,98.7
2015-11-05T05:53:57.457Z,98.7
2015-11-05T05:54:57.632Z,98.9
2015-11-05T05:55:57.354Z,99.6
2015-11-05T05:56:57.294Z,99.9
2015-11-05T05:57:57.250Z,99.9
2015-11-05T05:58:57.190Z,99.9
2015-11-05T05:59:57.130Z,99.9
2015-11-05T06:00:57.085Z,99.9
2015-11-05T06:01:57.027Z,99.9
2015-11-05T06:02:56.982Z,99.9
2015-11-05T06:03:56.923Z,99.9
2015-11-05T06:04:56.894Z,99.9
2015-11-05T06:05:56.818Z,99.9
2015-11-05T06:06:56.759Z,99.8
2015-11-05T06:07:56.715Z,99.6
2015-11-05T06:08:56.686Z,99.7
2015-11-05T06:09:56.607Z,99.9
2015-11-05T06:10:56.548Z,99.9
2015-11-05T06:11:56.504Z,99.9
2015-11-05T06:12:56.444Z,99.9
2015-11-05T06:13:56.385Z,99.9
2015-11-05T06:14:56.340Z,99.9
2015-11-05T06:15:56.295Z,99.9
2015-11-05T06:16:56.237Z,99.9
2015-11-05T06:17:56.193Z,99.9
2015-11-05T06:18:56.367Z,99.9
2015-11-05T06:19:55.917Z,99.9
2015-11-05T06:20:56.029Z,99.6
2015-11-05T06:21:55.970Z,99.9
2015-11-05T06:22:55.925Z,99.9
2015-11-05T06:23:55.865Z,99.9
2015-11-05T06:24:55.820Z,99.9
2015-11-05T06:25:55.026Z,99.9
2015-11-05T06:26:55.717Z,99.9
2015-11-05T06:27:55.657Z,99.2
2015-11-05T06:28:55.831Z,99.3
2015-11-05T06:29:55.553Z,99.8
2015-11-05T06:30:55.508Z,99.9
2015-11-05T06:31:55.450Z,99.2
2015-11-05T06:32:55.389Z,98.9
2015-11-05T06:33:55.346Z,99.2
2015-11-05T06:34:55.286Z,99.4
2015-11-05T06:35:55.226Z,99.4
2015-11-05T06:36:55.182Z,99.5
2015-11-05T06:37:55.122Z,99.7
2015-11-05T06:38:55.062Z,99.9
2015-11-05T06:39:55.019Z,99.9
2015-11-05T06:40:54.958Z,99.9
2015-11-05T06:41:54.914Z,99.9
2015-11-05T06:42:54.870Z,99.9
2015-11-05T06:43:54.810Z,99.9
2015-11-05T06:44:54.750Z,99.9
2015-11-05T06:45:54.691Z,99.9
2015-11-05T06:46:54.647Z,99.9
2015-11-05T06:47:54.618Z,99.9
2015-11-05T06:48:54.544Z,99.9
2015-11-05T06:49:54.483Z,99.9
2015-11-05T06:50:54.438Z,99.9
2015-11-05T06:51:54.394Z,99.9
2015-11-05T06:52:54.336Z,99.9
2015-11-05T06:53:54.275Z,99.8
2015-11-05T06:54:54.231Z,99.9
2015-11-05T06:55:54.015Z,99.9
2015-11-05T06:56:54.127Z,99.9
2015-11-05T06:57:54.068Z,99.9
2015-11-05T06:58:54.024Z,99.9
2015-11-05T06:59:53.963Z,99.9
2015-11-05T07:00:53.919Z,99.9
2015-11-05T07:01:53.860Z,99.9
2015-11-05T07:02:53.797Z,99.9
2015-11-05T07:03:53.753Z,99.9
2015-11-05T07:04:53.694Z,99.9
2015-11-05T07:05:53.649Z,99.9
2015-11-05T07:06:53.605Z,99.9
2015-11-05T07:07:53.546Z,99.9
2015-11-05T07:08:53.485Z,99.9
2015-11-05T07:09:53.441Z,99.9
2015-11-05T07:10:53.382Z,99.9
2015-11-05T07:11:53.338Z,99.9
2015-11-05T07:12:53.277Z,99.9
2015-11-05T07:13:53.452Z,99.9
2015-11-05T07:14:53.190Z,99.9
2015-11-05T07:15:53.349Z,99.9
2015-11-05T07:16:53.070Z,99.9
2015-11-05T07:17:53.010Z,99.9
2015-11-05T07:18:52.965Z,99.9
2015-11-05T07:19:52.906Z,99.9
2015-11-05T07:20:52.862Z,99.9
2015-11-05T07:21:52.802Z,99.7
2015-11-05T07:22:52.759Z,99.9
2015-11-05T07:23:52.698Z,99.8
2015-11-05T07:24:52.654Z,99.9
2015-11-05T07:25:51.859Z,99.9
2015-11-05T07:26:52.550Z,99.9
2015-11-05T07:27:52.490Z,99.9
2015-11-05T07:28:52.431Z,99.9
2015-11-05T07:29:52.386Z,99.9
2015-11-05T07:30:52.332Z,99.9
2015-11-05T07:31:52.287Z,99.9
2015-11-05T07:32:52.228Z,99.9
2015-11-05T07:33:52.184Z,99.9
2015-11-05T07:34:52.125Z,99.9
2015-11-05T07:35:52.081Z,99.9
2015-11-05T07:36:52.036Z,99.9
2015-11-05T07:37:51.975Z,99.5
2015-11-05T07:38:51.916Z,99.6
2015-11-05T07:39:51.856Z,99.5
2015-11-05T07:40:51.828Z,99.6
2015-11-05T07:41:51.752Z,99.2
2015-11-05T07:42:51.709Z,99.3
2015-11-05T07:43:51.883Z,99.2
2015-11-05T07:44:51.605Z,99.5
2015-11-05T07:45:51.561Z,99.6
2015-11-05T07:46:51.720Z,99.5
2015-11-05T07:47:51.442Z,99.5
2015-11-05T07:48:51.381Z,99.4
2015-11-05T07:49:51.322Z,99.2
2015-11-05T07:50:51.293Z,99.3
2015-11-05T07:51:51.230Z,99.2
2015-11-05T07:52:51.171Z,99.5
2015-11-05T07:53:51.127Z,99.8
2015-11-05T07:54:51.067Z,99.9
2015-11-05T07:55:51.022Z,99.9
2015-11-05T07:56:50.963Z,99.9
2015-11-05T07:57:50.919Z,99.9
2015-11-05T07:58:50.859Z,99.9
2015-11-05T07:59:50.815Z,99.9
2015-11-05T08:00:50.755Z,99.9
2015-11-05T08:01:50.929Z,99.9
2015-11-05T08:02:50.651Z,99.9
2015-11-05T08:03:50.607Z,99.9
2015-11-05T08:04:50.563Z,99.9
2015-11-05T08:05:50.488Z,99.9
2015-11-05T08:06:50.443Z,99.8
2015-11-05T08:07:50.383Z,99.5
2015-11-05T08:08:50.340Z,99.5
2015-11-05T08:09:50.280Z,99.9
2015-11-05T08:10:50.221Z,99.9
2015-11-05T08:11:50.176Z,99.9
2015-11-05T08:12:50.116Z,99.9
2015-11-05T08:13:50.072Z,99.9
2015-11-05T08:14:50.028Z,99.9
2015-11-05T08:15:49.969Z,99.9
2015-11-05T08:16:49.924Z,99.9
2015-11-05T08:17:49.865Z,99.9
2015-11-05T08:18:49.820Z,99.9
2015-11-05T08:19:49.760Z,99.9
2015-11-05T08:20:49.935Z,99.9
2015-11-05T08:21:49.657Z,99.9
2015-11-05T08:22:49.596Z,99.4
2015-11-05T08:23:49.552Z,99.7
2015-11-05T08:24:49.493Z,99.5
2015-11-05T08:25:49.465Z,99.3
2015-11-05T08:26:49.404Z,99.3
2015-11-05T08:27:49.345Z,99.9
2015-11-05T08:28:49.285Z,99.5
2015-11-05T08:29:49.257Z,99.9
2015-11-05T08:30:49.181Z,99.9
2015-11-05T08:31:49.137Z,99.9
2015-11-05T08:32:49.077Z,99.9
2015-11-05T08:33:49.034Z,99.6
2015-11-05T08:34:48.254Z,99.9
2015-11-05T08:35:48.929Z,99.9
2015-11-05T08:36:48.885Z,99.9
2015-11-05T08:37:48.825Z,99.9
2015-11-05T08:38:48.762Z,99.9
2015-11-05T08:39:48.734Z,99.9
2015-11-05T08:40:48.675Z,99.9
2015-11-05T08:41:48.615Z,99.9
2015-11-05T08:42:48.555Z,99.8
2015-11-05T08:43:48.526Z,99.7
2015-11-05T08:44:48.467Z,99.1
2015-11-05T08:45:48.423Z,99.5
2015-11-05T08:46:48.362Z,99.2
2015-11-05T08:47:48.412Z,98.9
2015-11-05T08:48:48.259Z,99
2015-11-05T08:49:48.200Z,97.7
2015-11-05T08:50:48.156Z,97.6
2015-11-05T08:51:48.126Z,97.5
2015-11-05T08:52:48.051Z,98.5
2015-11-05T08:53:47.992Z,99
2015-11-05T08:54:47.948Z,98.3
2015-11-05T08:55:47.903Z,98.4
2015-11-05T08:56:47.844Z,99
2015-11-05T08:57:47.800Z,98.3
2015-11-05T08:58:47.739Z,98.7
2015-11-05T08:59:47.696Z,98.7
2015-11-05T09:00:47.652Z,97.4
2015-11-05T09:01:47.592Z,97.2
2015-11-05T09:02:47.548Z,96.9
2015-11-05T09:03:47.488Z,97.6
2015-11-05T09:04:47.444Z,98.3
2015-11-05T09:05:47.384Z,99.9
2015-11-05T09:06:47.340Z,99.9
2015-11-05T09:07:47.280Z,99.9
2015-11-05T09:08:47.252Z,99.9
2015-11-05T09:09:47.192Z,99.9
2015-11-05T09:10:47.133Z,98.9
2015-11-05T09:11:47.073Z,98.6
2015-11-05T09:12:47.029Z,98.2
2015-11-05T09:13:46.984Z,97.6
2015-11-05T09:14:46.924Z,97.8
2015-11-05T09:15:46.881Z,98.7
2015-11-05T09:16:46.836Z,99
2015-11-05T09:17:46.777Z,99.4
2015-11-05T09:18:46.732Z,99.4
2015-11-05T09:19:46.908Z,97.6
2015-11-05T09:20:46.628Z,97.1
2015-11-05T09:21:46.566Z,96.8
2015-11-05T09:22:46.538Z,96.9
2015-11-05T09:23:46.462Z,96.3
2015-11-05T09:24:46.402Z,95.6
2015-11-05T09:25:46.357Z,96.2
2015-11-05T09:26:46.314Z,95.3
2015-11-05T09:27:46.488Z,94.6
2015-11-05T09:28:46.210Z,94.4
2015-11-05T09:29:46.166Z,93.3
2015-11-05T09:30:46.105Z,93.2
2015-11-05T09:31:46.063Z,92.9
2015-11-05T09:32:46.002Z,92.4
2015-11-05T09:33:45.958Z,92.6
2015-11-05T09:34:45.899Z,92.8
2015-11-05T09:35:45.854Z,93.7
2015-11-05T09:36:45.810Z,93.7
2015-11-05T09:37:45.750Z,94.2
2015-11-05T09:38:45.707Z,93.4
2015-11-05T09:39:45.663Z,93.9
2015-11-05T09:40:45.618Z,93.7
2015-11-05T09:41:45.793Z,94.1
2015-11-05T09:42:45.513Z,93.2
2015-11-05T09:43:45.436Z,94.6
2015-11-05T09:44:45.374Z,92.8
2015-11-05T09:45:45.532Z,92
2015-11-05T09:46:45.238Z,91.5
2015-11-05T09:47:45.412Z,91.7
2015-11-05T09:48:45.112Z,91.5
2015-11-05T09:49:45.061Z,92.8
2015-11-05T09:50:44.996Z,92
2015-11-05T09:51:45.184Z,93
2015-11-05T09:52:44.901Z,94.3
2015-11-05T09:53:44.840Z,93.5
2015-11-05T09:54:44.777Z,92.5
2015-11-05T09:55:44.731Z,91.1
2015-11-05T09:56:44.683Z,92.2
2015-11-05T09:57:44.482Z,92.6
2015-11-05T09:58:44.812Z,92.4
2015-11-05T09:59:44.516Z,91.7
2015-11-05T10:00:44.472Z,90.7
2015-11-05T10:01:44.427Z,90.7
2015-11-05T10:02:44.367Z,91.7
2015-11-05T10:03:44.339Z,89.2
2015-11-05T10:04:44.264Z,87.3
2015-11-05T10:05:44.219Z,87.6
2015-11-05T10:06:44.159Z,89.2
2015-11-05T10:07:44.349Z,88.2
2015-11-05T10:08:44.087Z,87.6
2015-11-05T10:09:44.246Z,87.6
2015-11-05T10:10:43.967Z,87.2
2015-11-05T10:11:43.922Z,86.7
2015-11-05T10:12:43.879Z,85.1
2015-11-05T10:13:43.835Z,86.6
2015-11-05T10:14:43.775Z,85.4
2015-11-05T10:15:43.735Z,86.5
2015-11-05T10:16:43.673Z,85.4
2015-11-05T10:17:43.629Z,83.5
2015-11-05T10:18:43.584Z,83.3
2015-11-05T10:19:43.524Z,83.3
2015-11-05T10:20:43.481Z,82.7
2015-11-05T10:21:43.437Z,83.4
2015-11-05T10:22:43.376Z,83.8
2015-11-05T10:23:43.332Z,84.3
2015-11-05T10:24:43.273Z,84.7
2015-11-05T10:25:43.228Z,86.4
2015-11-05T10:26:43.185Z,86
2015-11-05T10:27:43.125Z,85
2015-11-05T10:28:43.080Z,84.5
2015-11-05T10:29:43.037Z,83.8
2015-11-05T10:30:42.841Z,83.9
2015-11-05T10:31:42.937Z,84
2015-11-05T10:32:43.051Z,83.6
2015-11-05T10:33:42.834Z,82
2015-11-05T10:34:42.774Z,83.3
2015-11-05T10:35:42.731Z,84.3
2015-11-05T10:36:43.030Z,83.4
2015-11-05T10:37:42.704Z,80.6
2015-11-05T10:38:42.598Z,81.7
2015-11-05T10:39:42.523Z,82.9
2015-11-05T10:40:42.479Z,82
2015-11-05T10:41:42.668Z,81.8
2015-11-05T10:42:42.375Z,82.4
2015-11-05T10:43:41.596Z,81
2015-11-05T10:44:42.286Z,78.8
2015-11-05T10:45:42.242Z,81.4
2015-11-05T10:46:42.197Z,81.4
2015-11-05T10:47:42.139Z,80.2
2015-11-05T10:48:42.094Z,79.4
2015-11-05T10:49:42.035Z,78.6
2015-11-05T10:50:41.991Z,78.3
2015-11-05T10:51:41.947Z,80.3
2015-11-05T10:52:41.887Z,80.4
2015-11-05T10:53:41.827Z,80.1
2015-11-05T10:54:41.048Z,78.7
2015-11-05T10:55:41.740Z,78.9
2015-11-05T10:56:41.695Z,79.3
2015-11-05T10:57:41.869Z,79.1
2015-11-05T10:58:41.590Z,78.7
2015-11-05T10:59:41.781Z,77.8
2015-11-05T11:00:41.502Z,77.9
2015-11-05T11:01:41.443Z,76.9
2015-11-05T11:02:41.399Z,77.4
2015-11-05T11:03:41.354Z,77.1
2015-11-05T11:04:41.295Z,77.4
2015-11-05T11:05:41.251Z,78.3
2015-11-05T11:06:41.206Z,78.4
2015-11-05T11:07:41.147Z,78.8
2015-11-05T11:08:41.103Z,78.4
2015-11-05T11:09:41.058Z,77.2
2015-11-05T11:10:41.014Z,77.1
2015-11-05T11:11:40.955Z,77.4
2015-11-05T11:12:40.911Z,76.5
2015-11-05T11:13:40.850Z,76.7
2015-11-05T11:14:40.806Z,75.7
2015-11-05T11:15:40.762Z,74.8
2015-11-05T11:16:40.718Z,73.9
2015-11-05T11:17:40.658Z,74.8
2015-11-05T11:18:40.614Z,74.3
2015-11-05T11:19:40.570Z,75.8
2015-11-05T11:20:40.510Z,76
2015-11-05T11:21:40.466Z,76.1
2015-11-05T11:22:40.422Z,76.5
2015-11-05T11:23:40.378Z,76.9
2015-11-05T11:24:40.350Z,76.6
2015-11-05T11:25:40.274Z,76.3
2015-11-05T11:26:40.230Z,77.1
2015-11-05T11:27:40.169Z,76.9
2015-11-05T11:28:40.126Z,77.6
2015-11-05T11:29:40.082Z,78.2
2015-11-05T11:30:40.022Z,78.1
2015-11-05T11:31:39.978Z,77.2
2015-11-05T11:32:39.931Z,77.5
2015-11-05T11:33:39.871Z,77.9
2015-11-05T11:34:39.827Z,77.1
2015-11-05T11:35:40.001Z,76.5
2015-11-05T11:36:39.723Z,76.7
2015-11-05T11:37:39.679Z,76.5
2015-11-05T11:38:39.635Z,77.1
2015-11-05T11:39:39.574Z,77.5
2015-11-05T11:40:39.531Z,77.6
2015-11-05T11:41:39.486Z,78.7
2015-11-05T11:42:39.442Z,77.3
2015-11-05T11:43:39.398Z,76.5
2015-11-05T11:44:39.338Z,76.9
2015-11-05T11:45:39.294Z,76.6
2015-11-05T11:46:39.234Z,76.5
2015-11-05T11:47:39.190Z,77.1
2015-11-05T11:48:39.145Z,77.1
2015-11-05T11:49:39.102Z,78
2015-11-05T11:50:39.058Z,76.3
2015-11-05T11:51:38.998Z,76.3
2015-11-05T11:52:38.969Z,75.7
2015-11-05T11:53:38.910Z,74.7
2015-11-05T11:54:38.865Z,74.4
2015-11-05T11:55:38.822Z,76.3
2015-11-05T11:56:38.777Z,76.4
2015-11-05T11:57:38.577Z,74.9
2015-11-05T11:58:38.689Z,73.8
2015-11-05T11:59:38.644Z,76
2015-11-05T12:00:38.585Z,73.5
2015-11-05T12:01:38.541Z,75
2015-11-05T12:02:38.497Z,74.4
2015-11-05T12:03:38.437Z,74.3
2015-11-05T12:04:38.392Z,74.1
2015-11-05T12:05:38.349Z,74
2015-11-05T12:06:38.304Z,73.9
2015-11-05T12:07:38.260Z,72
2015-11-05T12:08:38.200Z,72.1
2015-11-05T12:09:38.156Z,72.7
2015-11-05T12:10:38.112Z,71.5
2015-11-05T12:11:38.068Z,71.5
2015-11-05T12:12:38.024Z,71.5
2015-11-05T12:13:37.979Z,69.7
2015-11-05T12:14:37.935Z,68.6
2015-11-05T12:15:37.877Z,64.7
2015-11-05T12:16:38.066Z,64.3
2015-11-05T12:17:37.803Z,62.8
2015-11-05T12:18:37.743Z,61.8
2015-11-05T12:19:37.715Z,59.4
2015-11-05T12:20:37.655Z,60.2
2015-11-05T12:21:37.611Z,59.1
2015-11-05T12:22:37.583Z,56.6
2015-11-05T12:23:37.538Z,56.3
2015-11-05T12:24:37.493Z,55.2
2015-11-05T12:25:37.450Z,53.7
2015-11-05T12:26:37.640Z,55
2015-11-05T12:27:37.377Z,53.8
2015-11-05T12:28:37.333Z,53.3
2015-11-05T12:29:37.290Z,53.4
2015-11-05T12:30:37.260Z,51
2015-11-05T12:31:37.216Z,50.6
2015-11-05T12:32:37.156Z,51
2015-11-05T12:33:37.128Z,50.4
2015-11-05T12:34:37.084Z,49.4
2015-11-05T12:35:37.040Z,49.6
2015-11-05T12:36:36.995Z,51.9
2015-11-05T12:37:36.967Z,53
2015-11-05T12:38:36.923Z,52.7
2015-11-05T12:39:36.879Z,51.9
2015-11-05T12:40:36.834Z,51.5
2015-11-05T12:41:36.790Z,51.1
2015-11-05T12:42:36.745Z,51.9
2015-11-05T12:43:36.717Z,53.2
2015-11-05T12:44:36.673Z,54.9
2015-11-05T12:45:36.629Z,54.3
2015-11-05T12:46:36.585Z,54.5
2015-11-05T12:47:36.541Z,53.4
2015-11-05T12:48:36.509Z,52.8
2015-11-05T12:49:36.466Z,53.3
2015-11-05T12:50:36.453Z,54.6
2015-11-05T12:51:36.378Z,56.8
2015-11-05T12:52:36.333Z,59.3
2015-11-05T12:53:36.289Z,58.7
2015-11-05T12:54:36.245Z,55.3
2015-11-05T12:55:36.200Z,55
2015-11-05T12:56:36.156Z,53.7
2015-11-05T12:57:36.113Z,51.9
2015-11-05T12:58:36.084Z,52.6
2015-11-05T12:59:36.039Z,52
2015-11-05T13:00:35.996Z,52.3
2015-11-05T13:01:35.952Z,51.7
2015-11-05T13:02:35.954Z,50.1
2015-11-05T13:03:35.863Z,51
2015-11-05T13:04:35.835Z,50.3
2015-11-05T13:05:35.790Z,49.4
2015-11-05T13:06:35.902Z,49.9
2015-11-05T13:07:35.780Z,49
2015-11-05T13:08:35.861Z,49.5
2015-11-05T13:09:35.629Z,49.8
2015-11-05T13:10:35.585Z,49.7
2015-11-05T13:11:35.541Z,50.5
2015-11-05T13:12:35.513Z,50.6
2015-11-05T13:13:35.469Z,51.1
2015-11-05T13:14:35.424Z,51.7
2015-11-05T13:15:35.396Z,49.7
2015-11-05T13:16:35.977Z,48.8
2015-11-05T13:17:35.293Z,49.4
2015-11-05T13:18:35.263Z,50.5
2015-11-05T13:19:35.219Z,51.7
2015-11-05T13:20:35.190Z,50.3